createdAt,value
2022-11-24T00:02:00.666Z,41.60
2022-11-24T00:04:27.832Z,41.67
2022-11-24T00:06:54.943Z,41.60
2022-11-24T00:09:22.089Z,41.70
2022-11-24T00:11:49.231Z,41.75
2022-11-24T00:14:16.473Z,41.76
2022-11-24T00:16:44.947Z,41.83
2022-11-24T00:19:17.021Z,41.73
2022-11-24T00:21:46.688Z,41.83
2022-11-24T00:24:13.981Z,41.68
2022-11-24T00:26:41.074Z,41.88
2022-11-24T00:29:10.998Z,41.84
2022-11-24T00:31:40.402Z,41.69
2022-11-24T00:34:12.085Z,41.65
2022-11-24T00:36:40.079Z,41.76
2022-11-24T00:39:11.072Z,41.88
2022-11-24T00:41:38.192Z,41.81
2022-11-24T00:44:05.831Z,41.86
2022-11-24T00:46:33.105Z,41.93
2022-11-24T00:49:00.459Z,41.84
2022-11-24T00:51:29.935Z,41.79
2022-11-24T00:53:57.555Z,41.66
2022-11-24T00:56:25.439Z,41.76
2022-11-24T00:58:52.554Z,41.76
2022-11-24T01:01:21.557Z,41.65
2022-11-24T01:03:48.790Z,41.83
2022-11-24T01:06:17.618Z,41.84
2022-11-24T01:08:46.763Z,41.88
2022-11-24T01:11:15.922Z,41.95
2022-11-24T01:13:45.103Z,41.85
2022-11-24T01:16:19.937Z,41.91
2022-11-24T01:18:47.589Z,41.88
2022-11-24T01:21:15.871Z,41.85
2022-11-24T01:23:43.487Z,41.85
2022-11-24T01:26:13.948Z,41.93
2022-11-24T01:28:46.570Z,41.96
2022-11-24T01:31:15.779Z,42.33
2022-11-24T01:33:43.016Z,41.88
2022-11-24T01:36:10.345Z,41.94
2022-11-24T01:38:37.634Z,41.80
2022-11-24T01:41:06.880Z,41.76
2022-11-24T01:43:35.539Z,41.94
2022-11-24T01:46:10.983Z,41.98
2022-11-24T01:48:43.347Z,41.90
2022-11-24T01:51:14.962Z,41.76
2022-11-24T01:53:49.067Z,41.73
2022-11-24T01:56:16.290Z,41.85
2022-11-24T01:58:48.351Z,41.92
2022-11-24T02:01:15.535Z,42.00
2022-11-24T02:03:46.080Z,42.05
2022-11-24T02:06:18.054Z,41.94
2022-11-24T02:08:48.957Z,41.87
2022-11-24T02:11:16.632Z,41.96
2022-11-24T02:13:46.869Z,42.03
2022-11-24T02:16:14.144Z,42.02
2022-11-24T02:18:42.456Z,41.93
2022-11-24T02:21:11.155Z,42.00
2022-11-24T02:23:44.963Z,41.90
2022-11-24T02:26:21.166Z,42.00
2022-11-24T02:28:50.141Z,42.00
2022-11-24T02:31:17.398Z,42.07
2022-11-24T02:33:45.323Z,41.96
2022-11-24T02:36:12.436Z,41.71
2022-11-24T02:38:39.563Z,41.65
2022-11-24T02:41:10.308Z,41.71
2022-11-24T02:43:41.742Z,41.79
2022-11-24T02:46:10.363Z,41.85
2022-11-24T02:48:37.526Z,41.86
2022-11-24T02:51:05.330Z,41.74
2022-11-24T02:53:32.579Z,41.84
2022-11-24T02:55:59.704Z,41.94
2022-11-24T02:58:26.820Z,41.85
2022-11-24T03:00:54.379Z,41.90
2022-11-24T03:03:22.950Z,41.98
2022-11-24T03:05:50.353Z,41.93
2022-11-24T03:08:17.509Z,41.89
2022-11-24T03:10:44.908Z,42.09
2022-11-24T03:13:12.161Z,42.20
2022-11-24T03:15:39.316Z,42.11
2022-11-24T03:18:06.588Z,42.02
2022-11-24T03:20:35.176Z,41.85
2022-11-24T03:23:02.291Z,41.74
2022-11-24T03:25:29.408Z,41.95
2022-11-24T03:27:56.935Z,41.90
2022-11-24T03:30:24.103Z,41.90
2022-11-24T03:32:51.723Z,41.80
2022-11-24T03:35:18.973Z,41.87
2022-11-24T03:37:47.743Z,41.82
2022-11-24T03:40:15.368Z,41.90
2022-11-24T03:42:42.475Z,41.99
2022-11-24T03:45:44.107Z,41.98
2022-11-24T03:47:57.318Z,42.08
2022-11-24T03:50:24.480Z,42.15
2022-11-24T03:52:53.080Z,42.14
2022-11-24T03:55:20.213Z,41.94
2022-11-24T03:57:47.392Z,41.56
2022-11-24T04:00:15.851Z,41.39
2022-11-24T04:02:43.169Z,40.85
2022-11-24T04:05:10.343Z,40.65
2022-11-24T04:07:37.508Z,40.64
2022-11-24T04:10:07.557Z,40.68
2022-11-24T04:12:34.682Z,40.51
2022-11-24T04:15:01.804Z,40.34
2022-11-24T04:17:28.935Z,40.40
2022-11-24T04:19:56.084Z,40.37
2022-11-24T04:22:23.183Z,40.30
2022-11-24T04:24:50.292Z,40.28
2022-11-24T04:27:18.796Z,40.47
2022-11-24T04:29:45.897Z,40.49
2022-11-24T04:32:13.075Z,40.54
2022-11-24T04:34:40.174Z,40.68
2022-11-24T04:37:07.283Z,40.68
2022-11-24T04:39:34.447Z,40.88
2022-11-24T04:42:01.678Z,41.16
2022-11-24T04:44:30.138Z,42.02
2022-11-24T04:46:57.337Z,46.08
2022-11-24T04:49:24.785Z,42.81
2022-11-24T04:51:51.961Z,42.88
2022-11-24T04:54:19.119Z,42.88
2022-11-24T04:56:50.478Z,42.69
2022-11-24T04:59:18.223Z,42.54
2022-11-24T05:01:47.348Z,42.53
2022-11-24T05:04:15.629Z,42.33
2022-11-24T05:06:42.783Z,42.41
2022-11-24T05:09:14.223Z,42.41
2022-11-24T05:11:41.699Z,42.11
2022-11-24T05:14:08.879Z,42.20
2022-11-24T05:16:36.187Z,41.98
2022-11-24T05:19:04.718Z,42.02
2022-11-24T05:21:31.814Z,41.97
2022-11-24T05:23:58.931Z,42.07
2022-11-24T05:26:26.441Z,42.18
2022-11-24T05:28:53.783Z,42.15
2022-11-24T05:31:21.126Z,42.11
2022-11-24T05:33:48.259Z,42.00
2022-11-24T05:36:16.743Z,42.04
2022-11-24T05:38:43.886Z,41.92
2022-11-24T05:41:10.984Z,42.21
2022-11-24T05:43:38.087Z,41.90
2022-11-24T05:46:05.427Z,41.91
2022-11-24T05:48:32.543Z,42.21
2022-11-24T05:50:59.669Z,42.26
2022-11-24T05:53:28.207Z,42.40
2022-11-24T05:55:55.305Z,42.23
2022-11-24T05:58:22.426Z,42.51
2022-11-24T06:00:49.787Z,42.33
2022-11-24T06:03:16.924Z,42.28
2022-11-24T06:05:46.649Z,42.30
2022-11-24T06:08:13.997Z,42.26
2022-11-24T06:10:42.506Z,42.27
2022-11-24T06:13:09.725Z,42.26
2022-11-24T06:15:37.097Z,42.17
2022-11-24T06:18:04.367Z,42.14
2022-11-24T06:20:33.023Z,42.13
2022-11-24T06:23:00.816Z,42.31
2022-11-24T06:25:28.906Z,42.22
2022-11-24T06:27:57.393Z,42.09
2022-11-24T06:30:24.494Z,42.28
2022-11-24T06:32:54.832Z,42.27
2022-11-24T06:35:23.239Z,42.39
2022-11-24T06:37:50.374Z,42.27
2022-11-24T06:40:17.666Z,42.60
2022-11-24T06:42:50.137Z,42.51
2022-11-24T06:45:18.703Z,42.67
2022-11-24T06:47:45.821Z,42.53
2022-11-24T06:50:12.930Z,42.59
2022-11-24T06:52:40.061Z,42.52
2022-11-24T06:55:08.194Z,42.59
2022-11-24T06:57:35.507Z,42.37
2022-11-24T07:00:04.191Z,42.28
2022-11-24T07:02:32.849Z,42.46
2022-11-24T07:05:00.040Z,42.33
2022-11-24T07:07:27.223Z,42.28
2022-11-24T07:09:54.340Z,42.25
2022-11-24T07:12:21.491Z,42.22
2022-11-24T07:14:48.604Z,42.20
2022-11-24T07:17:15.704Z,42.16
2022-11-24T07:19:44.204Z,42.07
2022-11-24T07:22:11.296Z,42.75
2022-11-24T07:24:38.398Z,42.45
2022-11-24T07:27:05.644Z,42.53
2022-11-24T07:29:32.789Z,42.44
2022-11-24T07:32:05.202Z,42.42
2022-11-24T07:34:33.128Z,42.56
2022-11-24T07:37:01.777Z,42.46
2022-11-24T07:39:28.893Z,42.42
2022-11-24T07:41:56.063Z,42.69
2022-11-24T07:44:23.360Z,42.54
2022-11-24T07:46:50.488Z,42.35
2022-11-24T07:49:17.607Z,42.43
2022-11-24T07:51:45.151Z,42.32
2022-11-24T07:54:13.632Z,42.40
2022-11-24T07:56:40.799Z,42.34
2022-11-24T07:59:07.911Z,42.25
2022-11-24T08:01:35.100Z,42.35
2022-11-24T08:04:02.338Z,42.48
2022-11-24T08:06:36.248Z,42.61
2022-11-24T08:09:06.958Z,42.48
2022-11-24T08:11:35.527Z,42.35
2022-11-24T08:14:02.627Z,42.40
2022-11-24T08:16:29.866Z,42.38
2022-11-24T08:18:57.104Z,42.36
2022-11-24T08:21:25.034Z,42.41
2022-11-24T08:23:54.716Z,42.43
2022-11-24T08:26:22.061Z,42.44
2022-11-24T08:28:54.377Z,42.53
2022-11-24T08:31:22.155Z,42.44
2022-11-24T08:33:49.311Z,42.44
2022-11-24T08:36:18.386Z,42.42
2022-11-24T08:38:46.256Z,42.16
2022-11-24T08:41:16.089Z,42.31
2022-11-24T08:43:43.410Z,42.22
2022-11-24T08:46:14.630Z,42.36
2022-11-24T08:48:41.831Z,42.81
2022-11-24T08:51:11.127Z,42.74
2022-11-24T08:53:38.344Z,42.67
2022-11-24T08:56:06.670Z,42.69
2022-11-24T08:58:34.126Z,42.63
2022-11-24T09:01:04.589Z,42.45
2022-11-24T09:03:33.692Z,42.54
2022-11-24T09:06:01.550Z,42.56
2022-11-24T09:08:30.279Z,42.52
2022-11-24T09:10:59.757Z,42.50
2022-11-24T09:13:27.113Z,42.63
2022-11-24T09:15:54.494Z,42.58
2022-11-24T09:18:23.440Z,42.50
2022-11-24T09:20:54.785Z,42.75
2022-11-24T09:23:21.906Z,42.62
2022-11-24T09:25:49.021Z,42.88
2022-11-24T09:28:16.159Z,43.04
2022-11-24T09:30:43.393Z,43.04
2022-11-24T09:33:10.543Z,42.81
2022-11-24T09:35:38.050Z,42.64
2022-11-24T09:38:06.556Z,42.67
2022-11-24T09:40:33.697Z,43.03
2022-11-24T09:43:07.300Z,42.96
2022-11-24T09:48:36.654Z,42.66
2022-11-24T09:51:05.779Z,42.75
2022-11-24T09:53:39.668Z,42.41
2022-11-24T09:56:18.690Z,42.37
2022-11-24T09:58:48.488Z,42.46
2022-11-24T10:01:17.938Z,42.52
2022-11-24T10:03:48.683Z,42.69
2022-11-24T10:06:26.781Z,43.10
2022-11-24T10:09:19.283Z,42.80
2022-11-24T10:11:55.317Z,42.64
2022-11-24T10:14:52.315Z,42.86
2022-11-24T10:17:38.352Z,42.76
2022-11-24T10:20:12.671Z,42.46
2022-11-24T10:22:48.673Z,42.17
2022-11-24T10:25:24.477Z,42.25
2022-11-24T10:27:56.743Z,42.45
2022-11-24T10:30:23.920Z,42.38
2022-11-24T10:32:57.035Z,42.49
2022-11-24T10:35:30.537Z,42.52
2022-11-24T10:38:06.926Z,42.69
2022-11-24T10:40:56.464Z,42.60
2022-11-24T10:43:26.655Z,43.11
2022-11-24T10:45:55.085Z,43.23
2022-11-24T10:48:25.719Z,44.17
2022-11-24T10:50:53.861Z,43.70
2022-11-24T10:53:24.565Z,43.70
2022-11-24T10:56:00.970Z,43.96
2022-11-24T10:58:33.004Z,43.67
2022-11-24T11:01:20.794Z,43.30
2022-11-24T11:03:50.744Z,43.44
2022-11-24T11:06:23.212Z,43.19
2022-11-24T11:09:19.372Z,43.02
2022-11-24T11:11:47.423Z,43.01
2022-11-24T11:14:30.004Z,42.99
2022-11-24T11:16:57.614Z,42.89
2022-11-24T11:19:48.980Z,42.79
2022-11-24T11:22:24.140Z,42.68
2022-11-24T11:25:03.834Z,42.71
2022-11-24T11:27:30.858Z,42.58
2022-11-24T11:36:10.202Z,42.15
2022-11-24T11:38:39.387Z,42.24
2022-11-24T11:41:19.304Z,42.11
2022-11-24T11:43:53.311Z,42.30
2022-11-24T11:46:21.202Z,42.43
2022-11-24T11:48:48.435Z,42.83
2022-11-24T11:51:44.524Z,42.85
2022-11-24T11:54:23.050Z,42.74
2022-11-24T11:57:02.642Z,42.67
2022-11-24T11:59:49.681Z,42.66
2022-11-24T12:03:13.489Z,42.71
2022-11-24T12:05:50.642Z,42.63
2022-11-24T12:08:43.979Z,42.59
2022-11-24T12:11:27.900Z,42.57
2022-11-24T12:14:10.741Z,42.98
2022-11-24T12:16:47.650Z,42.87
2022-11-24T12:19:27.264Z,42.80
2022-11-24T12:22:06.719Z,42.90
2022-11-24T12:24:43.508Z,43.00
2022-11-24T12:27:24.365Z,42.81
2022-11-24T12:30:05.153Z,42.35
2022-11-24T12:32:50.779Z,42.39
2022-11-24T12:35:25.715Z,42.40
2022-11-24T12:38:03.245Z,42.40
2022-11-24T12:40:46.694Z,42.90
2022-11-24T12:43:22.863Z,42.58
2022-11-24T12:45:59.181Z,42.57
2022-11-24T12:48:38.563Z,42.55
2022-11-24T12:51:15.797Z,42.57
2022-11-24T12:53:44.538Z,42.42
2022-11-24T12:56:14.149Z,42.59
2022-11-24T12:58:49.976Z,42.65
2022-11-24T13:01:28.736Z,42.18
2022-11-24T13:04:10.057Z,42.34
2022-11-24T13:06:49.423Z,42.35
2022-11-24T13:09:17.313Z,42.07
2022-11-24T13:11:45.761Z,42.04
2022-11-24T13:14:16.407Z,42.06
2022-11-24T13:19:43.644Z,41.76
2022-11-24T13:22:15.922Z,41.75
2022-11-24T13:24:43.504Z,41.70
2022-11-24T13:27:41.945Z,41.82
2022-11-24T13:30:48.639Z,42.32
2022-11-24T13:33:32.138Z,42.35
2022-11-24T13:36:30.634Z,42.64
2022-11-24T13:38:58.450Z,42.72
2022-11-24T13:42:08.124Z,42.68
2022-11-24T13:44:49.538Z,42.67
2022-11-24T13:47:37.027Z,42.57
2022-11-24T13:50:08.636Z,42.27
2022-11-24T13:52:40.630Z,41.87
2022-11-24T13:55:21.615Z,41.93
2022-11-24T13:57:51.457Z,42.15
2022-11-24T14:00:21.329Z,41.87
2022-11-24T14:02:49.718Z,41.80
2022-11-24T14:05:21.613Z,41.63
2022-11-24T14:07:51.121Z,42.19
2022-11-24T14:10:22.084Z,42.09
2022-11-24T14:13:31.886Z,42.33
2022-11-24T14:16:01.139Z,42.40
2022-11-24T14:18:28.712Z,42.19
2022-11-24T14:20:57.508Z,42.23
2022-11-24T14:23:24.782Z,41.79
2022-11-24T14:25:52.633Z,41.70
2022-11-24T14:28:23.654Z,41.81
2022-11-24T14:30:51.580Z,41.80
2022-11-24T14:33:19.846Z,41.62
2022-11-24T14:35:49.769Z,41.74
2022-11-24T14:38:18.321Z,41.40
2022-11-24T14:40:48.385Z,41.94
2022-11-24T14:43:27.710Z,41.94
2022-11-24T14:45:58.070Z,41.60
2022-11-24T14:48:27.481Z,41.85
2022-11-24T14:51:06.046Z,41.50
2022-11-24T14:53:35.416Z,41.26
2022-11-24T14:56:23.383Z,41.44
2022-11-24T14:58:51.301Z,41.42
2022-11-24T15:01:22.351Z,41.42
2022-11-24T15:04:26.621Z,41.46
2022-11-24T15:07:06.126Z,41.78
2022-11-24T15:09:37.983Z,41.93
2022-11-24T15:12:08.250Z,41.81
2022-11-24T15:14:49.834Z,41.85
2022-11-24T15:17:19.518Z,41.99
2022-11-24T15:19:50.369Z,41.93
2022-11-24T15:22:27.382Z,41.91
2022-11-24T15:24:55.913Z,42.04
2022-11-24T15:27:23.273Z,42.05
2022-11-24T15:29:50.513Z,41.73
2022-11-24T15:32:17.761Z,41.86
2022-11-24T15:34:44.863Z,41.72
2022-11-24T15:37:11.986Z,41.67
2022-11-24T15:39:39.117Z,41.48
2022-11-24T15:42:09.103Z,41.92
2022-11-24T15:44:36.690Z,41.84
2022-11-24T15:47:04.105Z,41.76
2022-11-24T15:49:31.251Z,41.68
2022-11-24T15:51:58.424Z,41.82
2022-11-24T15:54:25.882Z,41.89
2022-11-24T15:56:53.176Z,42.13
2022-11-24T15:59:21.677Z,41.88
2022-11-24T16:01:49.323Z,41.99
2022-11-24T16:04:16.765Z,41.65
2022-11-24T16:06:43.879Z,41.91
2022-11-24T16:09:14.677Z,42.03
2022-11-24T16:11:41.786Z,42.55
2022-11-24T16:14:08.934Z,42.53
2022-11-24T16:16:37.569Z,42.28
2022-11-24T16:19:04.688Z,41.88
2022-11-24T16:21:31.795Z,41.90
2022-11-24T16:23:58.950Z,41.87
2022-11-24T16:26:26.054Z,41.72
2022-11-24T16:28:53.486Z,41.68
2022-11-24T16:31:20.731Z,41.41
2022-11-24T16:33:49.233Z,41.71
2022-11-24T16:36:16.352Z,41.64
2022-11-24T16:38:43.835Z,41.90
2022-11-24T16:41:11.054Z,41.59
2022-11-24T16:43:38.482Z,41.53
2022-11-24T16:46:19.731Z,41.71
2022-11-24T16:48:50.055Z,41.50
2022-11-24T16:51:18.568Z,41.64
2022-11-24T16:53:45.731Z,41.56
2022-11-24T16:56:13.365Z,41.72
2022-11-24T16:58:41.092Z,41.63
2022-11-24T17:01:10.237Z,41.66
2022-11-24T17:03:38.249Z,41.79
2022-11-24T17:06:08.839Z,41.76
2022-11-24T17:08:37.611Z,41.75
2022-11-24T17:11:05.971Z,41.62
2022-11-24T17:13:33.167Z,41.52
2022-11-24T17:16:04.141Z,41.41
2022-11-24T17:18:31.477Z,41.38
2022-11-24T17:21:02.041Z,41.57
2022-11-24T17:23:33.179Z,41.42
2022-11-24T17:26:04.710Z,41.58
2022-11-24T17:28:31.835Z,41.60
2022-11-24T17:30:59.046Z,41.47
2022-11-24T17:33:28.209Z,41.37
2022-11-24T17:35:55.314Z,41.58
2022-11-24T17:38:22.443Z,41.38
2022-11-24T17:40:50.905Z,41.51
2022-11-24T17:43:18.028Z,41.27
2022-11-24T17:45:53.028Z,41.43
2022-11-24T17:48:20.397Z,41.02
2022-11-24T17:50:47.762Z,41.15
2022-11-24T17:53:14.890Z,41.29
2022-11-24T17:55:42.001Z,41.43
2022-11-24T17:58:10.464Z,41.54
2022-11-24T18:00:37.913Z,41.18
2022-11-24T18:03:05.076Z,41.16
2022-11-24T18:05:36.116Z,41.19
2022-11-24T18:08:03.565Z,41.07
2022-11-24T18:10:32.153Z,40.85
2022-11-24T18:12:59.254Z,40.91
2022-11-24T18:15:27.742Z,41.17
2022-11-24T18:17:54.884Z,41.04
2022-11-24T18:20:21.985Z,41.17
2022-11-24T18:23:05.110Z,41.19
2022-11-24T18:25:33.173Z,41.43
2022-11-24T18:28:00.339Z,41.34
2022-11-24T18:30:28.802Z,41.21
2022-11-24T18:32:58.299Z,41.34
2022-11-24T18:35:25.465Z,41.09
2022-11-24T18:37:53.235Z,41.24
2022-11-24T18:40:20.355Z,41.23
2022-11-24T18:42:47.535Z,41.45
2022-11-24T18:45:14.751Z,41.37
2022-11-24T18:47:43.250Z,41.37
2022-11-24T18:50:10.654Z,41.49
2022-11-24T18:52:37.768Z,41.25
2022-11-24T18:55:05.563Z,40.86
2022-11-24T18:57:32.677Z,42.60
2022-11-24T18:59:59.794Z,41.23
2022-11-24T19:02:27.085Z,41.27
2022-11-24T19:04:55.671Z,41.20
2022-11-24T19:07:22.933Z,41.10
2022-11-24T19:09:50.083Z,40.96
2022-11-24T19:12:17.395Z,41.03
2022-11-24T19:14:44.501Z,41.39
2022-11-24T19:17:11.616Z,41.35
2022-11-24T19:19:38.743Z,41.14
2022-11-24T19:22:07.198Z,41.25
2022-11-24T19:24:34.599Z,41.07
2022-11-24T19:27:01.799Z,41.28
2022-11-24T19:29:28.910Z,41.15
2022-11-24T19:31:56.119Z,41.22
2022-11-24T19:34:23.326Z,41.40
2022-11-24T19:36:50.447Z,41.53
2022-11-24T19:39:18.949Z,41.18
2022-11-24T19:41:46.117Z,40.99
2022-11-24T19:44:13.529Z,40.82
2022-11-24T19:46:40.634Z,40.89
2022-11-24T19:49:08.269Z,41.12
2022-11-24T19:51:38.026Z,41.00
2022-11-24T19:54:06.763Z,41.05
2022-11-24T19:56:36.473Z,40.84
2022-11-24T19:59:04.974Z,40.88
2022-11-24T20:01:34.862Z,41.08
2022-11-24T20:04:03.751Z,40.81
2022-11-24T20:06:34.440Z,41.27
2022-11-24T20:09:01.587Z,41.01
2022-11-24T20:11:29.316Z,41.20
2022-11-24T20:13:58.203Z,41.08
2022-11-24T20:16:29.495Z,41.37
2022-11-24T20:18:58.826Z,40.96
2022-11-24T20:21:27.783Z,41.10
2022-11-24T20:23:57.350Z,41.14
2022-11-24T20:26:26.146Z,41.01
2022-11-24T20:28:54.564Z,41.02
2022-11-24T20:31:25.286Z,41.09
2022-11-24T20:33:52.430Z,40.83
2022-11-24T20:36:21.704Z,40.71
2022-11-24T20:38:50.420Z,40.89
2022-11-24T20:41:19.638Z,40.76
2022-11-24T20:43:47.754Z,40.67
2022-11-24T20:46:17.077Z,41.10
2022-11-24T20:48:45.750Z,40.86
2022-11-24T20:51:14.414Z,41.17
2022-11-24T20:53:41.704Z,40.83
2022-11-24T20:56:10.821Z,41.28
2022-11-24T20:58:38.754Z,40.87
2022-11-24T21:01:06.811Z,41.12
2022-11-24T21:03:37.250Z,41.25
2022-11-24T21:06:11.091Z,41.02
2022-11-24T21:08:39.813Z,41.48
2022-11-24T21:11:08.572Z,41.12
2022-11-24T21:13:36.866Z,41.15
2022-11-24T21:16:12.657Z,41.01
2022-11-24T21:18:40.151Z,40.96
2022-11-24T21:21:07.381Z,41.14
2022-11-24T21:23:36.031Z,40.91
2022-11-24T21:26:05.669Z,40.74
2022-11-24T21:28:33.728Z,40.57
2022-11-24T21:31:03.583Z,40.67
2022-11-24T21:33:31.121Z,40.92
2022-11-24T21:36:01.359Z,41.07
2022-11-24T21:38:28.487Z,40.89
2022-11-24T21:41:00.355Z,40.74
2022-11-24T21:43:28.299Z,41.08
2022-11-24T21:45:55.518Z,41.25
2022-11-24T21:48:22.665Z,41.40
2022-11-24T21:50:49.780Z,41.31
2022-11-24T21:53:16.913Z,41.10
2022-11-24T21:55:44.089Z,41.24
2022-11-24T21:58:12.584Z,41.23
2022-11-24T22:00:39.746Z,41.25
2022-11-24T22:03:06.898Z,41.30
2022-11-24T22:05:34.035Z,41.09
2022-11-24T22:08:01.179Z,40.86
2022-11-24T22:10:28.434Z,40.93
2022-11-24T22:12:55.529Z,40.70
2022-11-24T22:15:23.997Z,40.79
2022-11-24T22:17:51.128Z,40.84
2022-11-24T22:20:18.252Z,40.79
2022-11-24T22:22:45.383Z,40.56
2022-11-24T22:25:12.640Z,40.73
2022-11-24T22:27:39.751Z,40.76
2022-11-24T22:30:08.265Z,40.72
2022-11-24T22:32:36.777Z,40.80
2022-11-24T22:35:04.650Z,40.85
2022-11-24T22:37:31.761Z,40.92
2022-11-24T22:39:58.880Z,40.93
2022-11-24T22:42:26.032Z,41.06
2022-11-24T22:44:53.140Z,40.93
2022-11-24T22:47:20.278Z,41.01
2022-11-24T22:49:48.725Z,40.96
2022-11-24T22:52:15.841Z,40.93
2022-11-24T22:54:42.957Z,41.09
2022-11-24T22:57:10.049Z,41.16
2022-11-24T22:59:37.156Z,40.92
2022-11-24T23:02:04.282Z,41.03
2022-11-24T23:04:31.386Z,40.70
2022-11-24T23:06:59.830Z,40.66
2022-11-24T23:09:27.071Z,41.11
2022-11-24T23:11:54.177Z,41.22
2022-11-24T23:14:21.274Z,41.50
2022-11-24T23:16:48.580Z,41.28
2022-11-24T23:19:15.811Z,41.47
2022-11-24T23:21:43.210Z,41.41
2022-11-24T23:24:11.709Z,41.45
2022-11-24T23:26:40.633Z,41.31
2022-11-24T23:29:07.944Z,41.36
2022-11-24T23:31:35.359Z,41.42
2022-11-24T23:34:04.737Z,41.63
2022-11-24T23:36:32.931Z,41.94
2022-11-24T23:39:03.113Z,41.78
2022-11-24T23:41:31.886Z,41.84
2022-11-24T23:43:59.061Z,41.86
2022-11-24T23:46:27.742Z,41.91
2022-11-24T23:48:55.553Z,41.90
2022-11-24T23:51:24.300Z,42.04
2022-11-24T23:53:53.515Z,41.72
2022-11-24T23:56:22.008Z,41.73
2022-11-24T23:58:50.540Z,41.61
